createdAt,value
2023-01-05T00:00:44.885Z,0.00
2023-01-05T00:01:44.991Z,0.00
2023-01-05T00:02:45.005Z,0.00
2023-01-05T00:03:44.948Z,0.00
2023-01-05T00:04:44.924Z,0.00
2023-01-05T00:05:44.819Z,0.00
2023-01-05T00:06:44.845Z,0.00
2023-01-05T00:07:44.863Z,0.00
2023-01-05T00:08:44.759Z,0.00
2023-01-05T00:09:44.775Z,0.00
2023-01-05T00:10:44.807Z,0.00
2023-01-05T00:11:44.724Z,0.00
2023-01-05T00:12:44.674Z,0.00
2023-01-05T00:13:44.713Z,0.00
2023-01-05T00:14:44.755Z,0.00
2023-01-05T00:15:44.718Z,0.00
2023-01-05T00:16:44.836Z,0.00
2023-01-05T00:17:44.702Z,0.00
2023-01-05T00:18:44.719Z,0.00
2023-01-05T00:19:44.650Z,0.00
2023-01-05T00:20:44.611Z,0.00
2023-01-05T00:21:44.672Z,0.00
2023-01-05T00:22:44.618Z,0.00
2023-01-05T00:23:44.639Z,0.00
2023-01-05T00:24:44.639Z,0.00
2023-01-05T00:25:44.557Z,0.00
2023-01-05T00:26:44.553Z,0.00
2023-01-05T00:27:44.620Z,0.00
2023-01-05T00:28:44.567Z,0.00
2023-01-05T00:29:44.536Z,0.00
2023-01-05T00:30:44.508Z,0.00
2023-01-05T00:31:44.523Z,0.00
2023-01-05T00:32:44.536Z,0.00
2023-01-05T00:33:44.468Z,0.00
2023-01-05T00:34:44.484Z,0.00
2023-01-05T00:35:44.457Z,0.00
2023-01-05T00:36:44.414Z,0.00
2023-01-05T00:37:44.420Z,0.00
2023-01-05T00:38:44.483Z,0.00
2023-01-05T00:39:44.383Z,0.00
2023-01-05T00:40:44.389Z,0.00
2023-01-05T00:41:44.421Z,0.00
2023-01-05T00:42:44.424Z,0.00
2023-01-05T00:43:44.354Z,0.00
2023-01-05T00:44:44.357Z,0.00
2023-01-05T00:45:44.313Z,0.00
2023-01-05T00:46:44.276Z,0.00
2023-01-05T00:47:44.285Z,0.00
2023-01-05T00:48:44.266Z,0.00
2023-01-05T00:49:44.279Z,0.00
2023-01-05T00:50:44.246Z,0.00
2023-01-05T00:51:44.242Z,0.00
2023-01-05T00:52:44.256Z,0.00
2023-01-05T00:53:44.194Z,0.00
2023-01-05T00:54:44.188Z,0.00
2023-01-05T00:55:44.188Z,0.00
2023-01-05T00:56:44.198Z,0.00
2023-01-05T00:57:44.165Z,0.00
2023-01-05T00:58:44.225Z,0.00
2023-01-05T00:59:44.115Z,0.00
2023-01-05T01:00:47.753Z,0.00
2023-01-05T01:01:44.208Z,0.00
2023-01-05T01:02:44.127Z,0.00
2023-01-05T01:03:44.156Z,0.00
2023-01-05T01:04:44.066Z,0.00
2023-01-05T01:05:44.100Z,0.00
2023-01-05T01:06:44.104Z,0.00
2023-01-05T01:07:44.093Z,0.00
2023-01-05T01:08:44.040Z,0.00
2023-01-05T01:09:44.009Z,0.00
2023-01-05T01:10:44.027Z,0.00
2023-01-05T01:11:44.002Z,0.00
2023-01-05T01:12:49.232Z,0.00
2023-01-05T01:13:43.961Z,0.00
2023-01-05T01:14:43.966Z,0.00
2023-01-05T01:15:43.954Z,0.00
2023-01-05T01:16:43.987Z,0.00
2023-01-05T01:17:43.961Z,0.00
2023-01-05T01:18:43.899Z,0.00
2023-01-05T01:19:43.924Z,0.00
2023-01-05T01:20:43.917Z,0.00
2023-01-05T01:21:43.868Z,0.00
2023-01-05T01:22:43.907Z,0.00
2023-01-05T01:23:43.854Z,0.00
2023-01-05T01:24:43.835Z,0.00
2023-01-05T01:25:43.874Z,0.00
2023-01-05T01:26:43.822Z,0.00
2023-01-05T01:27:43.847Z,0.00
2023-01-05T01:28:43.800Z,0.00
2023-01-05T01:29:43.803Z,0.00
2023-01-05T01:30:43.815Z,0.00
2023-01-05T01:31:43.797Z,0.00
2023-01-05T01:32:43.788Z,0.00
2023-01-05T01:33:43.749Z,0.00
2023-01-05T01:34:48.927Z,0.00
2023-01-05T01:35:43.791Z,0.00
2023-01-05T01:36:43.704Z,0.00
2023-01-05T01:37:43.706Z,0.00
2023-01-05T01:38:43.676Z,0.00
2023-01-05T01:39:43.668Z,0.00
2023-01-05T01:40:43.714Z,0.00
2023-01-05T01:41:43.744Z,0.00
2023-01-05T01:42:43.627Z,0.00
2023-01-05T01:43:43.639Z,0.00
2023-01-05T01:44:43.631Z,0.00
2023-01-05T01:45:43.645Z,0.00
2023-01-05T01:46:43.639Z,0.00
2023-01-05T01:47:43.641Z,0.00
2023-01-05T01:48:43.561Z,0.00
2023-01-05T01:49:43.572Z,0.00
2023-01-05T01:50:43.541Z,0.00
2023-01-05T01:51:43.552Z,0.00
2023-01-05T01:52:43.524Z,0.00
2023-01-05T01:53:43.532Z,0.00
2023-01-05T01:54:43.503Z,0.00
2023-01-05T01:55:43.509Z,0.00
2023-01-05T01:56:43.478Z,0.00
2023-01-05T01:57:43.460Z,0.00
2023-01-05T01:58:43.490Z,0.00
2023-01-05T01:59:43.435Z,0.00
2023-01-05T02:00:43.451Z,0.00
2023-01-05T02:01:43.590Z,0.00
2023-01-05T02:02:43.429Z,0.00
2023-01-05T02:03:43.432Z,0.00
2023-01-05T02:04:43.445Z,0.00
2023-01-05T02:05:43.362Z,0.00
2023-01-05T02:06:43.343Z,0.00
2023-01-05T02:07:43.371Z,0.00
2023-01-05T02:08:43.324Z,0.00
2023-01-05T02:09:43.357Z,0.00
2023-01-05T02:10:43.339Z,0.00
2023-01-05T02:11:43.307Z,0.00
2023-01-05T02:12:43.325Z,0.00
2023-01-05T02:13:43.284Z,0.00
2023-01-05T02:14:43.272Z,0.00
2023-01-05T02:15:43.285Z,0.00
2023-01-05T02:16:43.279Z,0.00
2023-01-05T02:17:43.272Z,0.00
2023-01-05T02:18:43.216Z,0.00
2023-01-05T02:19:43.197Z,0.00
2023-01-05T02:20:43.199Z,0.00
2023-01-05T02:21:43.191Z,0.00
2023-01-05T02:22:43.240Z,0.00
2023-01-05T02:23:43.171Z,0.00
2023-01-05T02:24:43.205Z,0.00
2023-01-05T02:25:43.156Z,0.00
2023-01-05T02:26:43.182Z,0.00
2023-01-05T02:27:43.156Z,0.00
2023-01-05T02:28:43.151Z,0.00
2023-01-05T02:29:43.126Z,0.00
2023-01-05T02:30:43.168Z,0.00
2023-01-05T02:31:43.118Z,0.00
2023-01-05T02:32:43.068Z,0.00
2023-01-05T02:33:43.075Z,0.00
2023-01-05T02:34:43.035Z,0.00
2023-01-05T02:35:43.025Z,0.00
2023-01-05T02:36:43.010Z,0.00
2023-01-05T02:37:43.090Z,0.00
2023-01-05T02:38:42.994Z,0.00
2023-01-05T02:39:42.998Z,0.00
2023-01-05T02:40:43.005Z,0.00
2023-01-05T02:41:42.958Z,0.00
2023-01-05T02:42:42.998Z,0.00
2023-01-05T02:43:42.946Z,0.00
2023-01-05T02:44:42.912Z,0.00
2023-01-05T02:45:42.941Z,0.00
2023-01-05T02:46:42.901Z,0.00
2023-01-05T02:47:42.965Z,0.00
2023-01-05T02:48:42.873Z,0.00
2023-01-05T02:49:42.867Z,0.00
2023-01-05T02:50:42.867Z,0.00
2023-01-05T02:51:42.849Z,0.00
2023-01-05T02:52:42.837Z,0.00
2023-01-05T02:53:42.862Z,0.00
2023-01-05T02:54:42.839Z,0.00
2023-01-05T02:55:42.796Z,0.00
2023-01-05T02:56:42.777Z,0.00
2023-01-05T02:57:42.785Z,0.00
2023-01-05T02:58:42.764Z,0.00
2023-01-05T02:59:42.796Z,0.00
2023-01-05T03:00:42.749Z,0.00
2023-01-05T03:01:42.813Z,0.00
2023-01-05T03:02:42.961Z,0.00
2023-01-05T03:03:42.819Z,0.00
2023-01-05T03:04:42.710Z,0.00
2023-01-05T03:05:42.710Z,0.00
2023-01-05T03:06:42.714Z,0.00
2023-01-05T03:07:42.664Z,0.00
2023-01-05T03:08:42.660Z,0.00
2023-01-05T03:09:42.685Z,0.00
2023-01-05T03:10:42.623Z,0.00
2023-01-05T03:11:42.620Z,0.00
2023-01-05T03:12:42.668Z,0.00
2023-01-05T03:13:42.644Z,0.00
2023-01-05T03:14:42.578Z,0.00
2023-01-05T03:15:42.654Z,0.00
2023-01-05T03:16:42.565Z,0.00
2023-01-05T03:17:42.529Z,0.00
2023-01-05T03:18:42.608Z,0.00
2023-01-05T03:19:42.532Z,0.00
2023-01-05T03:20:42.535Z,0.00
2023-01-05T03:21:42.492Z,0.00
2023-01-05T03:22:42.493Z,0.00
2023-01-05T03:23:42.463Z,0.00
2023-01-05T03:24:42.578Z,0.00
2023-01-05T03:25:42.456Z,0.00
2023-01-05T03:26:42.493Z,0.00
2023-01-05T03:27:42.437Z,0.00
2023-01-05T03:28:42.442Z,0.00
2023-01-05T03:29:42.448Z,0.00
2023-01-05T03:30:42.440Z,0.00
2023-01-05T03:31:42.402Z,0.00
2023-01-05T03:32:42.409Z,0.00
2023-01-05T03:33:42.373Z,0.00
2023-01-05T03:34:42.343Z,0.00
2023-01-05T03:35:42.345Z,0.00
2023-01-05T03:36:42.350Z,0.00
2023-01-05T03:37:42.301Z,0.00
2023-01-05T03:38:42.302Z,0.00
2023-01-05T03:39:42.282Z,0.00
2023-01-05T03:40:42.308Z,0.00
2023-01-05T03:41:42.293Z,0.00
2023-01-05T03:42:42.277Z,0.00
2023-01-05T03:43:42.237Z,0.00
2023-01-05T03:44:42.279Z,0.00
2023-01-05T03:45:42.211Z,0.00
2023-01-05T03:46:42.313Z,0.00
2023-01-05T03:47:42.209Z,0.00
2023-01-05T03:48:42.189Z,0.00
2023-01-05T03:49:42.171Z,0.00
2023-01-05T03:50:42.191Z,0.00
2023-01-05T03:51:42.441Z,0.00
2023-01-05T03:52:42.134Z,0.00
2023-01-05T03:53:42.164Z,0.00
2023-01-05T03:54:42.125Z,0.00
2023-01-05T03:55:42.137Z,0.00
2023-01-05T03:56:42.083Z,0.00
2023-01-05T03:57:42.093Z,0.00
2023-01-05T03:58:42.097Z,0.00
2023-01-05T03:59:42.065Z,0.00
2023-01-05T04:00:42.057Z,0.00
2023-01-05T04:01:42.205Z,0.00
2023-01-05T04:02:42.327Z,0.00
2023-01-05T04:03:42.114Z,0.00
2023-01-05T04:04:42.001Z,0.00
2023-01-05T04:05:42.009Z,0.00
2023-01-05T04:06:41.996Z,0.00
2023-01-05T04:07:41.985Z,0.00
2023-01-05T04:08:41.961Z,0.00
2023-01-05T04:09:41.942Z,0.00
2023-01-05T04:10:41.938Z,0.00
2023-01-05T04:11:41.958Z,0.00
2023-01-05T04:12:41.929Z,0.00
2023-01-05T04:13:41.918Z,0.00
2023-01-05T04:14:41.888Z,0.00
2023-01-05T04:15:41.934Z,0.00
2023-01-05T04:16:41.901Z,0.00
2023-01-05T04:17:41.842Z,0.00
2023-01-05T04:18:41.836Z,0.00
2023-01-05T04:19:41.828Z,0.00
2023-01-05T04:20:41.828Z,0.00
2023-01-05T04:21:41.819Z,0.00
2023-01-05T04:22:41.802Z,0.00
2023-01-05T04:23:41.781Z,0.00
2023-01-05T04:24:41.771Z,0.00
2023-01-05T04:25:41.803Z,0.00
2023-01-05T04:26:41.824Z,0.00
2023-01-05T04:27:41.761Z,0.00
2023-01-05T04:28:41.717Z,0.00
2023-01-05T04:29:41.714Z,0.00
2023-01-05T04:30:41.703Z,0.00
2023-01-05T04:31:41.788Z,0.00
2023-01-05T04:32:41.700Z,0.00
2023-01-05T04:33:41.660Z,0.00
2023-01-05T04:34:41.665Z,0.00
2023-01-05T04:35:41.676Z,0.00
2023-01-05T04:36:41.646Z,0.00
2023-01-05T04:37:41.674Z,0.00
2023-01-05T04:38:41.606Z,0.00
2023-01-05T04:39:41.618Z,0.00
2023-01-05T04:40:41.577Z,0.00
2023-01-05T04:41:41.621Z,0.00
2023-01-05T04:42:41.571Z,0.00
2023-01-05T04:43:41.587Z,0.00
2023-01-05T04:44:41.552Z,0.00
2023-01-05T04:45:41.549Z,0.00
2023-01-05T04:46:41.604Z,0.00
2023-01-05T04:47:41.550Z,0.00
2023-01-05T04:48:41.507Z,0.00
2023-01-05T04:49:41.488Z,0.00
2023-01-05T04:50:41.490Z,0.00
2023-01-05T04:51:41.448Z,0.00
2023-01-05T04:52:41.461Z,0.00
2023-01-05T04:53:41.490Z,0.00
2023-01-05T04:54:41.466Z,0.00
2023-01-05T04:55:41.434Z,0.00
2023-01-05T04:56:41.425Z,0.00
2023-01-05T04:57:41.396Z,0.00
2023-01-05T04:58:41.426Z,0.00
2023-01-05T04:59:41.404Z,0.00
2023-01-05T05:00:41.347Z,0.00
2023-01-05T05:01:41.441Z,0.00
2023-01-05T05:02:41.422Z,0.00
2023-01-05T05:03:41.442Z,0.00
2023-01-05T05:04:41.318Z,0.00
2023-01-05T05:05:41.304Z,0.00
2023-01-05T05:06:41.308Z,0.00
2023-01-05T05:07:41.293Z,0.00
2023-01-05T05:08:41.319Z,0.00
2023-01-05T05:09:41.276Z,0.00
2023-01-05T05:10:41.275Z,0.00
2023-01-05T05:11:41.231Z,0.00
2023-01-05T05:12:41.233Z,0.00
2023-01-05T05:13:41.205Z,0.00
2023-01-05T05:14:41.257Z,0.00
2023-01-05T05:15:41.218Z,0.00
2023-01-05T05:16:41.223Z,0.00
2023-01-05T05:17:41.190Z,0.00
2023-01-05T05:18:41.130Z,0.00
2023-01-05T05:19:41.124Z,0.00
2023-01-05T05:20:41.178Z,0.00
2023-01-05T05:21:41.118Z,0.00
2023-01-05T05:22:41.097Z,0.00
2023-01-05T05:23:41.088Z,0.00
2023-01-05T05:24:41.078Z,0.00
2023-01-05T05:25:41.103Z,0.00
2023-01-05T05:26:41.119Z,0.00
2023-01-05T05:27:41.037Z,0.00
2023-01-05T05:28:41.034Z,0.00
2023-01-05T05:29:41.018Z,0.00
2023-01-05T05:30:41.080Z,0.00
2023-01-05T05:31:41.066Z,0.00
2023-01-05T05:32:44.439Z,0.00
2023-01-05T05:33:40.990Z,0.00
2023-01-05T05:34:40.971Z,0.00
2023-01-05T05:35:40.963Z,0.00
2023-01-05T05:36:40.977Z,0.00
2023-01-05T05:37:40.917Z,0.00
2023-01-05T05:38:40.917Z,0.00
2023-01-05T05:39:40.901Z,0.00
2023-01-05T05:40:40.905Z,0.00
2023-01-05T05:41:40.920Z,0.00
2023-01-05T05:42:40.883Z,0.00
2023-01-05T05:43:40.891Z,0.00
2023-01-05T05:44:40.840Z,0.00
2023-01-05T05:45:43.661Z,0.00
2023-01-05T05:46:41.901Z,0.00
2023-01-05T05:47:40.858Z,0.00
2023-01-05T05:48:40.801Z,0.00
2023-01-05T05:49:40.801Z,0.00
2023-01-05T05:50:40.809Z,0.00
2023-01-05T05:51:40.857Z,0.00
2023-01-05T05:52:40.796Z,0.00
2023-01-05T05:53:40.755Z,0.00
2023-01-05T05:54:40.736Z,0.00
2023-01-05T05:55:40.733Z,0.00
2023-01-05T05:56:40.726Z,0.00
2023-01-05T05:57:40.750Z,0.00
2023-01-05T05:58:40.720Z,0.00
2023-01-05T05:59:40.708Z,0.00
2023-01-05T06:00:40.669Z,0.00
2023-01-05T06:01:40.829Z,0.00
2023-01-05T06:02:40.960Z,0.00
2023-01-05T06:03:40.687Z,0.00
2023-01-05T06:04:40.640Z,0.00
2023-01-05T06:05:40.645Z,0.00
2023-01-05T06:06:40.611Z,0.00
2023-01-05T06:07:40.634Z,0.00
2023-01-05T06:08:40.590Z,0.00
2023-01-05T06:09:40.567Z,0.00
2023-01-05T06:10:40.536Z,0.00
2023-01-05T06:11:40.531Z,0.00
2023-01-05T06:12:40.549Z,0.00
2023-01-05T06:13:40.566Z,0.00
2023-01-05T06:14:40.501Z,0.00
2023-01-05T06:15:40.490Z,0.00
2023-01-05T06:16:40.512Z,0.00
2023-01-05T06:17:40.514Z,0.00
2023-01-05T06:18:40.471Z,0.00
2023-01-05T06:19:40.437Z,0.00
2023-01-05T06:20:40.441Z,0.00
2023-01-05T06:21:40.423Z,0.00
2023-01-05T06:22:40.399Z,0.00
2023-01-05T06:23:40.471Z,0.00
2023-01-05T06:24:40.381Z,0.00
2023-01-05T06:25:40.359Z,0.00
2023-01-05T06:26:40.340Z,0.00
2023-01-05T06:27:40.363Z,0.00
2023-01-05T06:28:40.393Z,0.00
2023-01-05T06:29:40.326Z,0.00
2023-01-05T06:30:40.327Z,0.00
2023-01-05T06:31:40.333Z,0.00
2023-01-05T06:32:40.285Z,0.00
2023-01-05T06:33:40.301Z,0.00
2023-01-05T06:34:40.293Z,0.00
2023-01-05T06:35:40.276Z,0.00
2023-01-05T06:36:40.232Z,0.00
2023-01-05T06:37:40.233Z,0.00
2023-01-05T06:38:40.255Z,0.00
2023-01-05T06:39:40.278Z,0.00
2023-01-05T06:40:40.183Z,0.00
2023-01-05T06:41:40.185Z,0.00
2023-01-05T06:42:40.176Z,0.00
2023-01-05T06:43:40.175Z,0.00
2023-01-05T06:44:40.343Z,0.00
2023-01-05T06:45:40.223Z,0.00
2023-01-05T06:46:40.136Z,0.00
2023-01-05T06:47:40.367Z,0.00
2023-01-05T06:48:40.084Z,0.00
2023-01-05T06:49:40.094Z,0.00
2023-01-05T06:50:40.118Z,0.00
2023-01-05T06:51:40.089Z,0.00
2023-01-05T06:52:40.121Z,0.00
2023-01-05T06:53:40.052Z,0.00
2023-01-05T06:54:40.027Z,0.00
2023-01-05T06:55:40.025Z,0.00
2023-01-05T06:56:40.030Z,0.00
2023-01-05T06:57:39.988Z,0.00
2023-01-05T06:58:40.042Z,0.00
2023-01-05T06:59:40.109Z,0.00
2023-01-05T07:00:40.079Z,0.00
2023-01-05T07:01:40.122Z,0.00
2023-01-05T07:02:39.943Z,0.00
2023-01-05T07:03:39.980Z,0.00
2023-01-05T07:04:39.922Z,0.00
2023-01-05T07:05:39.991Z,5.62
2023-01-05T07:06:39.909Z,5.62
2023-01-05T07:07:39.878Z,5.62
2023-01-05T07:08:40.102Z,5.62
2023-01-05T07:09:39.844Z,5.62
2023-01-05T07:10:39.853Z,5.62
2023-01-05T07:11:39.880Z,5.62
2023-01-05T07:12:39.817Z,5.62
2023-01-05T07:13:39.805Z,11.25
2023-01-05T07:14:39.809Z,11.25
2023-01-05T07:15:39.816Z,11.25
2023-01-05T07:16:39.874Z,5.62
2023-01-05T07:17:39.859Z,5.62
2023-01-05T07:18:39.766Z,11.25
2023-01-05T07:19:39.751Z,11.25
2023-01-05T07:20:39.728Z,11.25
2023-01-05T07:21:39.728Z,16.88
2023-01-05T07:22:39.741Z,16.88
2023-01-05T07:23:39.714Z,16.88
2023-01-05T07:24:39.785Z,22.50
2023-01-05T07:25:39.741Z,22.50
2023-01-05T07:26:40.663Z,22.50
2023-01-05T07:27:39.645Z,22.50
2023-01-05T07:28:39.664Z,22.50
2023-01-05T07:29:39.769Z,22.50
2023-01-05T07:30:39.622Z,22.50
2023-01-05T07:31:39.635Z,22.50
2023-01-05T07:32:39.628Z,28.12
2023-01-05T07:33:40.474Z,28.12
2023-01-05T07:34:39.706Z,28.12
2023-01-05T07:35:39.654Z,28.12
2023-01-05T07:36:39.546Z,28.12
2023-01-05T07:37:39.570Z,33.75
2023-01-05T07:38:39.562Z,33.75
2023-01-05T07:39:39.510Z,33.75
2023-01-05T07:40:39.502Z,33.75
2023-01-05T07:41:39.621Z,28.12
2023-01-05T07:42:39.544Z,28.12
2023-01-05T07:43:39.474Z,28.12
2023-01-05T07:44:39.503Z,33.75
2023-01-05T07:45:39.466Z,39.38
2023-01-05T07:46:39.685Z,39.38
2023-01-05T07:47:39.609Z,45.00
2023-01-05T07:48:39.471Z,45.00
2023-01-05T07:49:39.454Z,39.38
2023-01-05T07:50:39.392Z,33.75
2023-01-05T07:51:39.512Z,33.75
2023-01-05T07:52:39.620Z,33.75
2023-01-05T07:53:44.301Z,39.38
2023-01-05T07:54:40.404Z,50.62
2023-01-05T07:55:39.414Z,56.25
2023-01-05T07:56:39.313Z,61.88
2023-01-05T07:57:39.461Z,67.50
2023-01-05T07:58:39.280Z,73.12
2023-01-05T07:59:39.467Z,73.12
2023-01-05T08:00:39.312Z,67.50
2023-01-05T08:01:39.305Z,56.25
2023-01-05T08:02:39.400Z,61.88
2023-01-05T08:03:39.277Z,67.50
2023-01-05T08:04:39.522Z,56.25
2023-01-05T08:05:39.409Z,56.25
2023-01-05T08:06:39.562Z,56.25
2023-01-05T08:07:39.194Z,39.38
2023-01-05T08:08:39.239Z,45.00
2023-01-05T08:09:39.165Z,67.50
2023-01-05T08:10:39.144Z,67.50
2023-01-05T08:11:39.174Z,50.62
2023-01-05T08:12:39.138Z,45.00
2023-01-05T08:13:39.466Z,56.25
2023-01-05T08:14:39.160Z,56.25
2023-01-05T08:15:39.197Z,45.00
2023-01-05T08:16:42.766Z,45.00
2023-01-05T08:17:39.069Z,50.62
2023-01-05T08:18:39.065Z,56.25
2023-01-05T08:19:39.173Z,56.25
2023-01-05T08:20:39.081Z,50.62
2023-01-05T08:21:39.042Z,61.88
2023-01-05T08:22:40.097Z,84.38
2023-01-05T08:23:39.013Z,168.75
2023-01-05T08:24:39.012Z,185.62
2023-01-05T08:25:39.021Z,151.88
2023-01-05T08:26:39.021Z,129.38
2023-01-05T08:27:38.991Z,163.12
2023-01-05T08:28:38.940Z,151.88
2023-01-05T08:29:39.093Z,157.50
2023-01-05T08:30:38.980Z,163.12
2023-01-05T08:31:38.966Z,191.25
2023-01-05T08:32:38.962Z,168.75
2023-01-05T08:33:38.939Z,123.75
2023-01-05T08:34:38.871Z,151.88
2023-01-05T08:35:38.874Z,163.12
2023-01-05T08:36:38.936Z,151.88
2023-01-05T08:37:38.846Z,163.12
2023-01-05T08:38:38.847Z,185.62
2023-01-05T08:39:38.836Z,174.38
2023-01-05T08:40:38.814Z,151.88
2023-01-05T08:41:39.165Z,202.50
2023-01-05T08:42:38.821Z,185.62
2023-01-05T08:43:38.771Z,219.38
2023-01-05T08:44:38.909Z,236.25
2023-01-05T08:45:38.829Z,196.88
2023-01-05T08:46:38.735Z,219.38
2023-01-05T08:47:38.769Z,236.25
2023-01-05T08:48:38.813Z,258.75
2023-01-05T08:49:38.731Z,286.88
2023-01-05T08:50:38.692Z,247.50
2023-01-05T08:51:38.917Z,241.88
2023-01-05T08:52:38.711Z,247.50
2023-01-05T08:53:38.679Z,286.88
2023-01-05T08:54:38.668Z,337.50
2023-01-05T08:55:38.724Z,281.25
2023-01-05T08:56:39.574Z,202.50
2023-01-05T08:57:38.776Z,225.00
2023-01-05T08:58:38.608Z,309.38
2023-01-05T08:59:38.613Z,281.25
2023-01-05T09:00:38.615Z,236.25
2023-01-05T09:01:38.777Z,281.25
2023-01-05T09:02:38.932Z,399.38
2023-01-05T09:03:38.626Z,348.75
2023-01-05T09:04:38.545Z,360.00
2023-01-05T09:05:38.545Z,354.38
2023-01-05T09:06:38.510Z,388.12
2023-01-05T09:07:38.541Z,348.75
2023-01-05T09:08:38.715Z,343.12
2023-01-05T09:09:40.164Z,320.62
2023-01-05T09:10:39.145Z,303.75
2023-01-05T09:11:39.097Z,270.00
2023-01-05T09:12:39.965Z,264.38
2023-01-05T09:13:38.443Z,343.12
2023-01-05T09:14:38.445Z,303.75
2023-01-05T09:15:38.419Z,303.75
2023-01-05T09:17:39.419Z,270.00
2023-01-05T09:18:38.366Z,247.50
2023-01-05T09:19:38.491Z,410.62
2023-01-05T09:20:40.156Z,410.62
2023-01-05T09:21:38.315Z,399.38
2023-01-05T09:22:38.454Z,376.88
2023-01-05T09:23:38.314Z,365.62
2023-01-05T09:24:38.307Z,388.12
2023-01-05T09:25:38.349Z,405.00
2023-01-05T09:26:38.776Z,337.50
2023-01-05T09:27:38.270Z,258.75
2023-01-05T09:28:38.274Z,315.00
2023-01-05T09:29:38.263Z,315.00
2023-01-05T09:30:43.201Z,253.12
2023-01-05T09:31:39.243Z,219.38
2023-01-05T09:32:38.279Z,202.50
2023-01-05T09:33:38.182Z,225.00
2023-01-05T09:34:38.238Z,365.62
2023-01-05T09:35:38.190Z,405.00
2023-01-05T09:36:38.166Z,315.00
2023-01-05T09:37:38.325Z,320.62
2023-01-05T09:38:43.441Z,354.38
2023-01-05T09:39:39.140Z,298.12
2023-01-05T09:40:38.865Z,315.00
2023-01-05T09:41:38.967Z,337.50
2023-01-05T09:42:38.223Z,354.38
2023-01-05T09:43:38.091Z,433.12
2023-01-05T09:44:38.128Z,343.12
2023-01-05T09:45:38.067Z,270.00
2023-01-05T09:46:38.178Z,253.12
2023-01-05T09:47:38.192Z,388.12
2023-01-05T09:48:38.058Z,388.12
2023-01-05T09:49:38.064Z,331.88
2023-01-05T09:50:38.106Z,309.38
2023-01-05T09:51:38.515Z,286.88
2023-01-05T09:52:38.784Z,264.38
2023-01-05T09:53:37.972Z,225.00
2023-01-05T09:54:38.019Z,236.25
2023-01-05T09:55:38.299Z,298.12
2023-01-05T09:57:38.919Z,292.50
2023-01-05T09:58:37.936Z,298.12
2023-01-05T09:59:37.888Z,303.75
2023-01-05T10:00:39.597Z,348.75
2023-01-05T10:01:37.961Z,393.75
2023-01-05T10:02:37.936Z,399.38
2023-01-05T10:04:03.019Z,376.88
2023-01-05T10:04:38.948Z,388.12
2023-01-05T10:05:37.929Z,478.12
2023-01-05T10:06:37.854Z,517.50
2023-01-05T10:07:37.860Z,433.12
2023-01-05T10:08:37.816Z,388.12
2023-01-05T10:09:37.800Z,405.00
2023-01-05T10:10:37.771Z,540.00
2023-01-05T10:11:37.827Z,579.38
2023-01-05T10:12:37.808Z,540.00
2023-01-05T10:13:37.739Z,534.38
2023-01-05T10:14:38.010Z,500.62
2023-01-05T10:15:37.798Z,433.12
2023-01-05T10:16:38.049Z,393.75
2023-01-05T10:17:43.313Z,450.00
2023-01-05T10:18:38.841Z,427.50
2023-01-05T10:19:37.688Z,410.62
2023-01-05T10:20:38.464Z,365.62
2023-01-05T10:21:37.775Z,450.00
2023-01-05T10:22:39.088Z,393.75
2023-01-05T10:23:37.631Z,343.12
2023-01-05T10:24:37.601Z,405.00
2023-01-05T10:25:37.626Z,478.12
2023-01-05T10:27:06.325Z,455.62
2023-01-05T10:27:38.598Z,461.25
2023-01-05T10:28:37.621Z,410.62
2023-01-05T10:29:37.600Z,371.25
2023-01-05T10:30:37.714Z,495.00
2023-01-05T10:31:37.531Z,596.25
2023-01-05T10:32:49.327Z,540.00
2023-01-05T10:33:41.664Z,534.38
2023-01-05T10:34:38.620Z,601.88
2023-01-05T10:37:38.450Z,534.38
2023-01-05T10:38:37.443Z,568.12
2023-01-05T10:39:37.417Z,590.62
2023-01-05T10:40:37.459Z,652.50
2023-01-05T10:41:37.537Z,568.12
2023-01-05T10:42:37.408Z,478.12
2023-01-05T10:43:37.384Z,416.25
2023-01-05T10:44:37.407Z,393.75
2023-01-05T10:45:57.195Z,416.25
2023-01-05T10:46:43.645Z,281.25
2023-01-05T10:47:38.448Z,427.50
2023-01-05T10:48:37.340Z,393.75
2023-01-05T10:49:37.347Z,489.38
2023-01-05T10:50:37.356Z,517.50
2023-01-05T10:51:37.350Z,506.25
2023-01-05T10:52:37.285Z,495.00
2023-01-05T10:53:37.259Z,534.38
2023-01-05T10:54:37.310Z,686.25
2023-01-05T10:55:37.286Z,1265.62
2023-01-05T10:56:37.386Z,1676.25
2023-01-05T10:57:37.478Z,1569.38
2023-01-05T10:58:37.227Z,1625.62
2023-01-05T10:59:37.286Z,1681.88
2023-01-05T11:00:37.295Z,1659.38
2023-01-05T11:01:37.323Z,1681.88
2023-01-05T11:02:37.317Z,1704.38
2023-01-05T11:04:23.090Z,1833.75
2023-01-05T11:04:38.189Z,1839.38
2023-01-05T11:05:37.322Z,1693.12
2023-01-05T11:06:37.149Z,1873.12
2023-01-05T11:07:37.157Z,1884.38
2023-01-05T11:08:37.113Z,1839.38
2023-01-05T11:09:37.156Z,1833.75
2023-01-05T11:10:37.100Z,1794.38
2023-01-05T11:11:37.134Z,1884.38
2023-01-05T11:12:37.067Z,1839.38
2023-01-05T11:13:37.083Z,1631.25
2023-01-05T11:14:37.040Z,1665.00
2023-01-05T11:15:38.082Z,1653.75
2023-01-05T11:16:37.032Z,1631.25
2023-01-05T11:17:37.087Z,1631.25
2023-01-05T11:18:37.025Z,1597.50
2023-01-05T11:19:36.989Z,1535.62
2023-01-05T11:20:36.994Z,1541.25
2023-01-05T11:21:36.967Z,1389.38
2023-01-05T11:22:36.978Z,1575.00
2023-01-05T11:23:36.945Z,540.00
2023-01-05T11:24:36.931Z,635.62
2023-01-05T11:25:36.971Z,433.12
2023-01-05T11:26:36.930Z,455.62
2023-01-05T11:27:36.892Z,433.12
2023-01-05T11:28:36.914Z,556.88
2023-01-05T11:29:36.872Z,1732.50
2023-01-05T11:30:36.972Z,1012.50
2023-01-05T11:31:36.929Z,1743.75
2023-01-05T11:32:36.850Z,720.00
2023-01-05T11:33:36.802Z,478.12
2023-01-05T11:34:36.852Z,500.62
2023-01-05T11:35:36.833Z,950.62
2023-01-05T11:36:36.799Z,838.12
2023-01-05T11:37:36.792Z,1760.62
2023-01-05T11:38:36.790Z,1738.12
2023-01-05T11:39:38.067Z,1327.50
2023-01-05T11:40:36.758Z,1659.38
2023-01-05T11:41:36.717Z,343.12
2023-01-05T11:42:36.718Z,393.75
2023-01-05T11:43:36.707Z,388.12
2023-01-05T11:44:36.670Z,1265.62
2023-01-05T11:45:36.719Z,1524.38
2023-01-05T11:46:36.713Z,1546.88
2023-01-05T11:47:43.149Z,1552.50
2023-01-05T11:48:37.668Z,1518.75
2023-01-05T11:49:36.660Z,1468.12
2023-01-05T11:50:36.627Z,1411.88
2023-01-05T11:51:36.638Z,1372.50
2023-01-05T11:52:36.599Z,337.50
2023-01-05T11:53:36.604Z,1378.12
2023-01-05T11:54:36.622Z,1383.75
2023-01-05T11:55:36.561Z,1372.50
2023-01-05T11:56:36.587Z,1170.00
2023-01-05T11:57:36.546Z,1091.25
2023-01-05T11:58:36.521Z,1406.25
2023-01-05T11:59:36.537Z,1451.25
2023-01-05T12:00:36.553Z,1524.38
2023-01-05T12:01:36.524Z,1580.62
2023-01-05T12:02:36.556Z,1192.50
2023-01-05T12:03:36.522Z,821.25
2023-01-05T12:04:36.444Z,675.00
2023-01-05T12:05:36.482Z,365.62
2023-01-05T12:06:36.437Z,444.38
2023-01-05T12:07:36.444Z,517.50
2023-01-05T12:08:36.411Z,348.75
2023-01-05T12:09:36.458Z,241.88
2023-01-05T12:10:36.395Z,247.50
2023-01-05T12:11:36.390Z,281.25
2023-01-05T12:12:36.503Z,483.75
2023-01-05T12:13:36.352Z,208.12
2023-01-05T12:14:36.385Z,241.88
2023-01-05T12:15:36.321Z,208.12
2023-01-05T12:16:36.425Z,219.38
2023-01-05T12:17:36.322Z,185.62
2023-01-05T12:18:36.297Z,174.38
2023-01-05T12:19:36.353Z,163.12
2023-01-05T12:20:36.282Z,196.88
2023-01-05T12:21:36.263Z,191.25
2023-01-05T12:22:36.243Z,191.25
2023-01-05T12:23:36.298Z,196.88
2023-01-05T12:24:36.263Z,168.75
2023-01-05T12:25:36.217Z,163.12
2023-01-05T12:26:36.278Z,168.75
2023-01-05T12:27:36.176Z,163.12
2023-01-05T12:28:41.430Z,180.00
2023-01-05T12:34:36.120Z,174.38
2023-01-05T12:35:36.110Z,146.25
2023-01-05T12:36:36.100Z,151.88
2023-01-05T12:37:36.133Z,157.50
2023-01-05T12:38:36.072Z,168.75
2023-01-05T12:39:37.039Z,157.50
2023-01-05T12:40:36.083Z,163.12
2023-01-05T12:41:36.052Z,185.62
2023-01-05T12:42:36.072Z,174.38
2023-01-05T12:43:36.004Z,163.12
2023-01-05T12:44:36.074Z,146.25
2023-01-05T12:45:36.021Z,146.25
2023-01-05T12:46:36.049Z,129.38
2023-01-05T12:47:35.964Z,123.75
2023-01-05T12:48:35.954Z,118.12
2023-01-05T12:49:35.950Z,106.88
2023-01-05T12:50:35.936Z,129.38
2023-01-05T12:51:36.015Z,151.88
2023-01-05T12:52:35.902Z,151.88
2023-01-05T12:53:35.886Z,112.50
2023-01-05T12:54:35.905Z,129.38
2023-01-05T12:55:35.866Z,146.25
2023-01-05T12:56:35.878Z,118.12
2023-01-05T12:57:35.900Z,106.88
2023-01-05T12:58:35.837Z,146.25
2023-01-05T12:59:35.849Z,213.75
2023-01-05T13:00:35.934Z,303.75
2023-01-05T13:01:35.943Z,601.88
2023-01-05T13:02:36.078Z,568.12
2023-01-05T13:03:35.800Z,511.88
2023-01-05T13:04:41.295Z,405.00
2023-01-05T13:05:37.110Z,956.25